• Join FlightAware (Why Join?)
  • Login
  • US Flag 
03:14AM EDT


 

Airport Tracker/Info


-or-


 

Live Flight TrackerFlight Track Log ✈ N454QS ✈ 21-May-2013 ✈ KTEB - KSNA

Flight Track Log - Related Links

Times and Time Zones

All times are in EDT time to prevent confusion due to time zone crossing. See the N454QS flight status page for this flight to view local times or setup timezone preferences in your user account.

Time Position Orientation Groundspeed Altitude Reporting Facility
EDT Latitude Longitude Course Direction KTS MPH feet Rate Location/Type
06:33PM 40.8222 -74.1247 254° West 196 226 1,500  Level New York Center
06:33PM 40.8167 -74.1500 254° West 204 235 1,600 1,080 Climbing New York TRACON
06:34PM 40.8000 -74.2333 255° West 202 232 3,200 1,500 Climbing New York TRACON
06:35PM 40.7833 -74.3167 255° West 257 296 4,800 2,100 Climbing New York TRACON
06:36PM 40.8333 -74.3667 323° Northwest 282 325 7,300 2,700 Climbing New York TRACON
06:37PM 40.8833 -74.4333 315° West 285 328 10,000 1,920 Climbing New York TRACON
06:38PM 40.9003 -74.5075 287° West 295 339 10,400 1,260 Climbing New York Center
06:39PM 40.8828 -74.6025 256° West 347 399 12,000 1,980 Climbing New York Center
06:40PM 40.8617 -74.7411 259° West 347 399 14,500 2,280 Climbing New York Center
06:41PM 40.8450 -74.8608 260° West 371 427 16,600 2,220 Climbing New York Center
06:42PM 40.8208 -75.0103 258° West 377 434 18,900 1,860 Climbing New York Center
06:43PM 40.8019 -75.1269 258° West 377 434 20,400 1,680 Climbing New York Center
06:44PM 40.7628 -75.2833 252° West 393 452 22,400 1,500 Climbing New York Center
06:45PM 40.7228 -75.4067 247° West 407 468 23,500 1,320 Climbing New York Center
06:46PM 40.6733 -75.5483 245° Southwest 412 474 25,100 1,500 Climbing New York Center
06:47PM 40.6256 -75.6928 246° West 423 487 26,500 1,320 Climbing New York Center
06:48PM 40.5736 -75.8367 245° Southwest 434 499 27,800 1,260 Climbing New York Center
06:49PM 40.5122 -76.0069 245° Southwest 454 522 29,100 1,320 Climbing New York Center
06:50PM 40.4594 -76.1583 245° Southwest 461 531 30,500 1,260 Climbing New York Center
06:51PM 40.4117 -76.2936 245° Southwest 461 531 31,700 1,260 Climbing New York Center
06:52PM 40.3606 -76.4450 246° West 461 531 33,000 1,380 Climbing New York Center
06:53PM 40.3319 -76.6058 257° West 461 531 34,500 1,320 Climbing New York Center
06:54PM 40.3239 -76.7686 266° West 456 525 35,700 1,260 Climbing New York Center
06:55PM 40.3156 -76.9286 266° West 450 518 37,100 1,380 Climbing New York Center
06:56PM 40.3069 -77.0911 266° West 445 512 38,600 1,560 Climbing New York Center
06:57PM 40.2944 -77.2453 264° West 439 505 40,200 1,200 Climbing New York Center
06:59PM 40.2797 -77.5731 267° West 419 482 42,500 840 Climbing Cleveland Center
07:00PM 40.2689 -77.7206 265° West 414 476 43,000 240 Climbing Cleveland Center
07:01PM 40.2600 -77.8706 266° West 409 471 43,000  Level Cleveland Center
07:02PM 40.2467 -78.0097 263° West 420 483 43,000  Level Cleveland Center
07:03PM 40.2417 -78.1706 268° West 436 502 43,000  Level Cleveland Center
07:04PM 40.2450 -78.3308 272° West 443 510 43,000  Level Cleveland Center
07:05PM 40.2461 -78.4939 271° West 443 510 43,000  Level Cleveland Center
07:06PM 40.2467 -78.6519 270° West 443 510 43,000  Level Cleveland Center
07:07PM 40.2494 -78.8122 271° West 438 504 43,100  Climbing Cleveland Center
07:08PM 40.2517 -78.9728 271° West 438 504 43,000 -60 Descending Cleveland Center
07:09PM 40.2517 -79.1306 270° West 438 504 43,000  Level Cleveland Center
07:10PM 40.2536 -79.2908 271° West 438 504 43,000  Level Cleveland Center
07:11PM 40.2575 -79.4458 272° West 438 504 43,000  Level Cleveland Center
07:12PM 40.2569 -79.6011 270° West 438 504 43,000  Level Cleveland Center
07:13PM 40.2581 -79.7586 271° West 438 504 43,000  Level Cleveland Center
07:14PM 40.2569 -79.9111 270° West 438 504 43,000  Level Cleveland Center
07:15PM 40.2536 -80.0717 268° West 438 504 43,000  Level Cleveland Center
07:16PM 40.2564 -80.2294 271° West 438 504 43,000  Level Cleveland Center
07:17PM 40.2567 -80.3844 270° West 438 504 43,000  Level Cleveland Center
07:18PM 40.2569 -80.5394 270° West 438 504 43,000  Level Cleveland Center
07:19PM 40.2567 -80.6972 270° West 438 504 43,000  Level Cleveland Center
07:20PM 40.2567 -80.8525 270° West 438 504 43,000  Level Cleveland Center
07:21PM 40.2539 -81.0103 269° West 438 504 43,000  Level Cleveland Center
07:22PM 40.2533 -81.1625 270° West 438 504 43,000  Level Cleveland Center
07:22PM 40.2622 -81.2494 278° West 432 497 43,000  Level Indianapolis Center
07:23PM 40.2914 -81.4022 284° West 430 495 43,000  Level Indianapolis Center
07:24PM 40.3128 -81.5589 280° West 433 498 43,000  Level Indianapolis Center
07:25PM 40.3075 -81.7175 268° West 430 495 43,000  Level Indianapolis Center
07:26PM 40.3019 -81.8756 267° West 431 496 43,000  Level Indianapolis Center
07:27PM 40.2978 -82.0361 268° West 434 499 43,000  Level Indianapolis Center
07:28PM 40.2931 -82.2231 268° West 434 499 43,000  Level Indianapolis Center
07:29PM 40.2889 -82.3836 268° West 437 503 43,000 -60 Level Indianapolis Center
07:30PM 40.2856 -82.5450 269° West 439 505 42,900  Descending Indianapolis Center
07:31PM 40.2825 -82.7069 269° West 441 507 43,000  Climbing Indianapolis Center
07:33PM 40.2803 -82.8744 269° West 439 505 43,000  Level Indianapolis Center
07:34PM 40.2772 -83.0333 269° West 436 502 43,000 -60 Level Indianapolis Center
07:35PM 40.2769 -83.1872 270° West 424 488 42,900  Descending Indianapolis Center
07:36PM 40.2756 -83.3436 269° West 428 493 43,000  Climbing Indianapolis Center
07:37PM 40.2744 -83.4992 270° West 427 491 43,000  Level Indianapolis Center
07:38PM 40.2750 -83.6542 270° West 426 490 43,000  Level Indianapolis Center
07:39PM 40.2750 -83.8344 270° West 425 489 43,000  Level Indianapolis Center
07:40PM 40.2758 -83.9883 270° West 423 487 43,000  Level Indianapolis Center
07:41PM 40.2772 -84.1433 271° West 425 489 43,000  Level Indianapolis Center
07:42PM 40.2764 -84.2969 270° West 420 483 43,000  Level Indianapolis Center
07:43PM 40.2672 -84.4517 266° West 423 487 43,000 -60 Level Indianapolis Center
07:44PM 40.2578 -84.6064 265° West 424 488 42,900  Descending Indianapolis Center
07:45PM 40.2472 -84.7617 265° West 427 491 43,000  Climbing Indianapolis Center
07:46PM 40.2358 -84.9419 265° West 425 489 43,000  Level Indianapolis Center
07:47PM 40.2264 -85.0942 265° West 423 487 43,000  Level Indianapolis Center
07:48PM 40.2161 -85.2747 266° West 417 480 43,000  Level Indianapolis Center
07:49PM 40.2050 -85.4258 265° West 419 482 43,000  Level Indianapolis Center
07:50PM 40.1944 -85.5756 265° West 416 479 43,000  Level Indianapolis Center
07:51PM 40.1836 -85.7294 265° West 424 488 43,000  Level Indianapolis Center
07:52PM 40.1728 -85.8844 265° West 429 494 43,000  Level Indianapolis Center
07:53PM 40.1600 -86.0717 265° West 439 505 43,000  Level Chicago Center
07:55PM 40.1364 -86.3906 265° West 444 511 43,000  Level Indianapolis Center
07:56PM 40.1242 -86.5492 264° West 444 511 43,000  Level Indianapolis Center
07:59PM 40.0958 -86.8975 264° West 441 507 43,000  Level Chicago Center
08:00PM 40.0833 -87.0533 264° West 437 503 43,000  Level Chicago Center
08:01PM 40.0694 -87.2114 263° West 438 504 43,000  Level Chicago Center
08:02PM 40.0561 -87.3672 264° West 435 501 43,000  Level Chicago Center
08:03PM 40.0417 -87.5536 264° West 431 496 43,000  Level Chicago Center
08:04PM 40.0286 -87.7083 264° West 431 496 43,000  Level Chicago Center
08:05PM 40.0150 -87.8628 263° West 429 494 43,000  Level Chicago Center
08:06PM 40.0008 -88.0189 263° West 433 498 43,000  Level Chicago Center
08:07PM 39.9853 -88.1933 263° West 431 496 43,000  Level Chicago Center
08:08PM 39.9708 -88.3483 263° West 430 495 43,000  Level Chicago Center
08:09PM 39.9519 -88.5331 262° West 430 495 43,000  Level Kansas City Center
08:10PM 39.9403 -88.6567 263° West 427 491 43,000  Level Chicago Center
08:11PM 39.9231 -88.8119 262° West 431 496 43,000  Level Chicago Center
08:12PM 39.9106 -88.9633 264° West 423 487 43,000  Level Chicago Center
08:13PM 39.8919 -89.1497 263° West 428 493 43,000  Level Chicago Center
08:14PM 39.8781 -89.3058 263° West 433 498 43,000  Level Chicago Center
08:15PM 39.8608 -89.4658 262° West 446 513 43,000  Level Chicago Center
08:16PM 39.8444 -89.6264 262° West 448 516 43,000  Level Chicago Center
08:17PM 39.8517 -89.7914 273° West 457 526 43,000  Level Chicago Center
08:18PM 39.8739 -89.9867 278° West 457 526 43,000  Level Kansas City Center
08:19PM 39.8919 -90.1511 278° West 457 526 43,000  Level Kansas City Center
08:20PM 39.8867 -90.3172 268° West 460 529 43,000  Level Kansas City Center
08:21PM 39.8717 -90.4797 263° West 455 524 43,000  Level Kansas City Center
08:22PM 39.8561 -90.6408 263° West 450 518 43,000  Level Kansas City Center
08:23PM 39.8367 -90.8344 263° West 450 518 43,000  Level Kansas City Center
08:24PM 39.8194 -91.0044 263° West 452 520 43,000  Level Kansas City Center
08:26PM 39.8014 -91.1658 262° West 454 522 43,000  Level Kansas City Center
08:27PM 39.7858 -91.3297 263° West 459 528 43,000  Level Kansas City Center
08:28PM 39.7700 -91.4917 263° West 455 524 43,000  Level Kansas City Center
08:29PM 39.7531 -91.6550 262° West 457 526 43,000  Level Kansas City Center
08:30PM 39.7350 -91.8181 262° West 458 527 43,000  Level Kansas City Center
08:31PM 39.7131 -92.0139 262° West 458 527 43,000  Level Kansas City Center
08:32PM 39.6964 -92.1761 262° West 456 525 43,000  Level Kansas City Center
08:33PM 39.6775 -92.3394 262° West 458 527 43,000  Level Kansas City Center
08:34PM 39.6583 -92.5039 261° West 460 529 43,000  Level Kansas City Center
08:35PM 39.6389 -92.6683 261° West 461 531 43,000  Level Kansas City Center
08:36PM 39.6200 -92.8336 262° West 464 534 43,000  Level Kansas City Center
08:37PM 39.6003 -92.9967 261° West 461 531 43,000  Level Kansas City Center
08:38PM 39.5767 -93.1925 261° West 461 531 43,000  Level Kansas City Center
08:39PM 39.5561 -93.3581 261° West 465 535 43,000  Level Kansas City Center
08:40PM 39.5372 -93.5239 262° West 467 537 43,000  Level Kansas City Center
08:41PM 39.5167 -93.6881 261° West 465 535 43,000  Level Kansas City Center
08:42PM 39.4958 -93.8583 261° West 464 534 43,000 -60 Level Kansas City Center
08:43PM 39.4725 -94.0419 261° West 465 535 42,900  Descending Kansas City Center
08:44PM 39.4533 -94.1975 261° West 458 527 43,000  Climbing Kansas City Center
08:45PM 39.4300 -94.3725 260° West 443 510 43,000  Level Kansas City Center
08:46PM 39.4114 -94.5178 261° West 430 495 43,000  Level Kansas City Center
08:47PM 39.3997 -94.6975 265° West 452 520 43,000  Level Kansas City Center
08:48PM 39.3869 -94.8578 264° West 469 540 43,000  Level Kansas City Center
08:49PM 39.3781 -95.0439 267° West 469 540 43,000  Level Kansas City Center
08:50PM 39.3681 -95.2211 266° West 478 550 43,000  Level Kansas City Center
08:51PM 39.3581 -95.3933 266° West 482 555 43,000 60 Level Kansas City Center
08:52PM 39.3469 -95.5564 265° West 478 550 43,200 180 Climbing Kansas City Center
08:53PM 39.3186 -95.7394 259° West 468 539 43,400 180 Climbing Kansas City Center
08:54PM 39.2944 -95.8950 259° West 464 534 43,600 180 Climbing Kansas City Center
08:55PM 39.2664 -96.0786 259° West 467 537 43,800 180 Climbing Kansas City Center
08:56PM 39.2425 -96.2350 259° West 465 535 44,000 60 Climbing Kansas City Center
08:57PM 39.2194 -96.3883 259° West 457 526 44,000  Level Kansas City Center
08:58PM 39.1914 -96.5664 259° West 454 522 44,000  Level Kansas City Center
09:00PM 39.1667 -96.7197 258° West 456 525 44,000  Level Kansas City Center
09:01PM 39.1389 -96.8967 259° West 452 520 44,000  Level Kansas City Center
09:02PM 39.1144 -97.0475 258° West 451 519 44,000  Level Kansas City Center
09:03PM 39.0875 -97.2239 259° West 450 518 44,000  Level Kansas City Center
09:04PM 39.0628 -97.3739 258° West 449 517 44,000  Level Kansas City Center
09:05PM 39.0339 -97.5497 258° West 449 517 44,000  Level Kansas City Center
09:06PM 39.0092 -97.6978 258° West 444 511 44,000  Level Kansas City Center
09:07PM 38.9822 -97.8569 258° West 436 502 44,000  Level Kansas City Center
09:08PM 38.9567 -98.0061 258° West 433 498 44,000  Level Kansas City Center
09:09PM 38.9311 -98.1569 258° West 432 497 44,000  Level Kansas City Center
09:10PM 38.9050 -98.3083 258° West 435 501 44,000  Level Kansas City Center
09:11PM 38.8792 -98.4600 258° West 437 503 44,000  Level Kansas City Center
09:12PM 38.8464 -98.6417 257° West 438 504 44,000  Level Kansas City Center
09:13PM 38.8194 -98.7931 257° West 438 504 44,000  Level Kansas City Center
09:14PM 38.7931 -98.9447 257° West 438 504 44,000  Level Kansas City Center
09:15PM 38.7656 -99.0961 257° West 438 504 44,000  Level Kansas City Center
09:16PM 38.7389 -99.2481 257° West 439 505 44,000  Level Kansas City Center
09:17PM 38.7103 -99.3997 256° West 440 506 44,000  Level Kansas City Center
09:18PM 38.6819 -99.5603 257° West 442 509 44,000  Level Kansas City Center
09:19PM 38.6492 -99.7300 256° West 441 507 44,000  Level Kansas City Center
09:20PM 38.6231 -99.8781 257° West 445 512 44,000  Level Kansas City Center
09:21PM 38.5903 -100.0486 256° West 445 512 44,000  Level Kansas City Center
09:22PM 38.5617 -100.1956 256° West 445 512 44,000  Level Kansas City Center
09:23PM 38.5286 -100.3678 256° West 449 517 44,000  Level Kansas City Center
09:24PM 38.5006 -100.5150 256° West 448 516 44,000  Level Kansas City Center
09:25PM 38.4681 -100.6842 256° West 444 511 44,000  Level Kansas City Center
09:26PM 38.4392 -100.8294 256° West 443 510 44,000  Level Kansas City Center
09:27PM 38.4050 -100.9986 256° West 444 511 44,000  Level Kansas City Center
09:28PM 38.3758 -101.1414 255° West 439 505 44,000  Level Denver Center
09:29PM 38.3419 -101.3081 256° West 437 503 44,000  Level Denver Center
09:30PM 38.3128 -101.4511 255° West 439 505 44,000  Level Denver Center
09:31PM 38.2797 -101.6186 256° West 440 506 44,000 -240 Level Denver Center
09:33PM 38.2500 -101.7628 255° West 442 509 43,600 -540 Descending Denver Center
09:34PM 38.2147 -101.9325 255° West 447 514 43,000 -300 Descending Denver Center
09:35PM 38.1844 -102.0767 255° West 442 509 43,000  Level Denver Center
09:36PM 38.1497 -102.2411 255° West 433 498 43,000  Level Denver Center
09:37PM 38.1192 -102.3831 255° West 435 501 43,000  Level Denver Center
09:38PM 38.0847 -102.5494 255° West 436 502 43,000  Level Denver Center
09:39PM 38.0544 -102.6928 255° West 441 507 43,000  Level Denver Center
09:40PM 38.0197 -102.8531 255° West 443 510 43,000  Level Denver Center
09:41PM 37.9875 -102.9958 254° West 442 509 43,000  Level Denver Center
09:42PM 37.9528 -103.1603 255° West 434 499 43,000  Level Denver Center
09:43PM 37.9206 -103.3033 254° West 439 505 43,000  Level Denver Center
09:44PM 37.8947 -103.4231 255° West 442 509 43,000  Level Denver Center
09:45PM 37.8525 -103.6142 254° West 445 512 43,000  Level Denver Center
09:46PM 37.8206 -103.7567 254° West 443 510 43,000  Level Denver Center
09:47PM 37.7833 -103.9211 254° West 440 506 43,000  Level Denver Center
09:48PM 37.7514 -104.0636 254° West 445 512 43,000  Level Denver Center
09:49PM 37.7131 -104.2275 254° West 443 510 43,000  Level Denver Center
09:50PM 37.6814 -104.3675 254° West 439 505 43,000  Level Denver Center
09:51PM 37.6425 -104.5306 253° West 437 503 43,000  Level Denver Center
09:52PM 37.6100 -104.6719 254° West 438 504 43,000  Level Denver Center
09:53PM 37.5708 -104.8358 253° West 438 504 43,000  Level Denver Center
09:54PM 37.5389 -104.9728 254° West 429 494 43,000  Level Denver Center
09:55PM 37.4997 -105.1342 253° West 430 495 43,000  Level Denver Center
09:56PM 37.4639 -105.2864 254° West 438 504 43,000  Level Denver Center
09:57PM 37.4286 -105.4286 253° West 445 512 43,000  Level Denver Center
09:58PM 37.4017 -105.5475 254° West 443 510 43,000  Level Denver Center
09:59PM 37.3564 -105.7303 253° West 429 494 43,000  Level Denver Center
10:00PM 37.3236 -105.8669 253° West 427 491 43,000  Level Denver Center
10:01PM 37.2833 -106.0256 252° West 427 491 43,000  Level Denver Center
10:02PM 37.2506 -106.1589 253° West 422 486 43,000  Level Denver Center
10:03PM 37.2103 -106.3194 253° West 432 497 43,000  Level Denver Center
10:04PM 37.1758 -106.4594 253° West 437 503 43,000  Level Denver Center
10:05PM 37.1347 -106.6219 252° West 437 503 43,000  Level Denver Center
10:06PM 37.0986 -106.7611 252° West 439 505 43,000  Level Denver Center
10:07PM 37.0567 -106.9225 252° West 436 502 43,000  Level Denver Center
10:09PM 37.0217 -107.0597 252° West 434 499 43,000  Level Denver Center
10:10PM 36.9858 -107.1947 252° West 428 493 43,000  Level Denver Center
10:11PM 36.9464 -107.3500 252° West 422 486 43,000  Level Denver Center
10:12PM 36.9108 -107.4831 252° West 424 488 43,000  Level Denver Center
10:13PM 36.8697 -107.6386 252° West 422 486 43,000  Level Denver Center
10:14PM 36.8350 -107.7733 252° West 426 490 43,000  Level Denver Center
10:15PM 36.7936 -107.9289 252° West 423 487 43,000  Level Denver Center
10:16PM 36.7581 -108.0600 251° West 420 483 43,000  Level Denver Center
10:17PM 36.7114 -108.1864 245° Southwest 422 486 43,000  Level Denver Center
10:18PM 36.6497 -108.3325 242° Southwest 427 491 43,000  Level Denver Center
10:19PM 36.5956 -108.4575 242° Southwest 431 496 43,000  Level Denver Center
10:20PM 36.5322 -108.6031 242° Southwest 430 495 43,000  Level Denver Center
10:21PM 36.4797 -108.7272 242° Southwest 426 490 43,000  Level Denver Center
10:22PM 36.4181 -108.8725 242° Southwest 428 493 43,000  Level Denver Center
10:23PM 36.3633 -108.9953 241° Southwest 428 493 43,000  Level Denver Center
10:24PM 36.3111 -109.1172 242° Southwest 424 488 43,000  Level Denver Center
10:25PM 36.2394 -109.2786 241° Southwest 422 486 43,000  Level Denver Center
10:26PM 36.1772 -109.4194 241° Southwest 420 483 43,000  Level Denver Center
10:27PM 36.1222 -109.5431 241° Southwest 427 491 43,000  Level Denver Center
10:28PM 36.0575 -109.6872 241° Southwest 430 495 43,000  Level Denver Center
10:29PM 36.0042 -109.8086 242° Southwest 424 488 43,000  Level Denver Center
10:30PM 35.9497 -109.9303 241° Southwest 423 487 43,000  Level Denver Center
10:31PM 35.8869 -110.0692 241° Southwest 416 479 43,000  Level Denver Center
10:32PM 35.8325 -110.1897 241° Southwest 425 489 43,000  Level Denver Center
10:33PM 35.7653 -110.3325 240° Southwest 424 488 43,000  Level Albuquerque Center
10:35PM 35.7011 -110.4728 241° Southwest 419 482 43,000  Level Albuquerque Center
10:36PM 35.6492 -110.5875 241° Southwest 406 467 43,000  Level Albuquerque Center
10:37PM 35.5886 -110.7206 241° Southwest 400 460 43,000  Level Albuquerque Center
10:38PM 35.5344 -110.8342 240° Southwest 402 463 43,000  Level Albuquerque Center
10:39PM 35.4808 -110.9511 241° Southwest 407 468 43,000  Level Albuquerque Center
10:40PM 35.4158 -111.0903 240° Southwest 418 481 43,000  Level Albuquerque Center
10:41PM 35.3597 -111.2117 240° Southwest 425 489 43,000  Level Albuquerque Center
10:42PM 35.3036 -111.3356 241° Southwest 417 480 43,000  Level Albuquerque Center
10:43PM 35.2486 -111.4558 241° Southwest 410 472 43,000  Level Albuquerque Center
10:44PM 35.2056 -111.5789 247° West 400 460 43,000  Level Albuquerque Center
10:45PM 35.1672 -111.7058 250° West 399 459 43,000  Level Albuquerque Center
10:46PM 35.1222 -111.8558 250° West 402 463 43,000  Level Albuquerque Center
10:47PM 35.0825 -111.9850 249° West 405 466 43,000  Level Albuquerque Center
10:48PM 35.0422 -112.1147 249° West 409 471 43,000  Level Albuquerque Center
10:48PM 35.0261 -112.1681 250° West 413 475 43,000  Level Los Angeles Center
10:49PM 35.0014 -112.2469 249° West 415 478 43,000  Level Albuquerque Center
10:50PM 34.9619 -112.3772 250° West 411 473 43,000  Level Albuquerque Center
10:51PM 34.9217 -112.5061 249° West 409 471 43,000  Level Albuquerque Center
10:52PM 34.8822 -112.6317 249° West 403 464 43,000  Level Albuquerque Center
10:53PM 34.8428 -112.7578 249° West 400 460 43,000  Level Albuquerque Center
10:54PM 34.8031 -112.8839 249° West 400 460 43,000  Level Albuquerque Center
10:55PM 34.7547 -113.0358 249° West 400 460 43,000  Level Albuquerque Center
10:56PM 34.7144 -113.1622 249° West 401 461 43,000  Level Albuquerque Center
10:57PM 34.6742 -113.2878 249° West 401 461 43,000  Level Albuquerque Center
10:58PM 34.6333 -113.4153 249° West 404 465 43,000  Level Albuquerque Center
10:59PM 34.5911 -113.5442 248° West 409 471 43,000  Level Albuquerque Center
11:00PM 34.5483 -113.6911 251° West 406 467 43,000  Level Albuquerque Center
11:01PM 34.5219 -113.8192 256° West 396 456 43,000  Level Albuquerque Center
11:02PM 34.4914 -113.9464 254° West 393 452 43,000  Level Albuquerque Center
11:03PM 34.4608 -114.0733 254° West 392 451 43,000  Level Albuquerque Center
11:04PM 34.4486 -114.1258 254° West 389 448 43,000  Level Los Angeles Center
11:05PM 34.4192 -114.2511 254° West 390 449 43,000  Level Los Angeles Center
11:06PM 34.3831 -114.4011 254° West 387 445 43,000 -180 Level Los Angeles Center
11:07PM 34.3531 -114.5256 254° West 388 447 42,700 -540 Descending Los Angeles Center
11:08PM 34.3222 -114.6528 254° West 392 451 42,000 -720 Descending Los Angeles Center
11:09PM 34.2897 -114.7792 253° West 394 453 41,300 -780 Descending Los Angeles Center
11:10PM 34.2589 -114.9072 254° West 396 456 40,500 -900 Descending Los Angeles Center
11:11PM 34.2272 -115.0344 253° West 397 457 39,500 -960 Descending Los Angeles Center
11:12PM 34.1969 -115.1578 254° West 388 447 38,500 -1,140 Descending Los Angeles Center
11:13PM 34.1586 -115.3078 253° West 391 450 37,200 -1,440 Descending Los Angeles Center
11:14PM 34.1264 -115.4375 253° West 401 461 35,700 -1,560 Descending Los Angeles Center
11:15PM 34.0928 -115.5697 253° West 412 474 34,100 -1,500 Descending Los Angeles Center
11:16PM 34.0589 -115.7036 253° West 417 480 32,600 -1,500 Descending Los Angeles Center
11:17PM 34.0247 -115.8369 253° West 417 480 31,000 -1,620 Descending Los Angeles Center
11:18PM 33.9906 -115.9669 252° West 411 473 29,400 -1,620 Descending Los Angeles Center
11:19PM 33.9525 -116.1106 252° West 376 433 27,700 -1,500 Descending Los Angeles Center
11:20PM 33.9222 -116.2297 253° West 374 430 26,300 -1,380 Descending Los Angeles Center
11:21PM 33.8903 -116.3508 252° West 380 437 24,900 -1,980 Descending Los Angeles Center
11:22PM 33.8717 -116.4828 260° West 401 461 22,300 -2,640 Descending Los Angeles Center
11:23PM 33.8783 -116.6086 274° West 381 438 19,500 -2,760 Descending Los Angeles Center
11:24PM 33.8842 -116.7292 273° West 367 422 16,700 -2,700 Descending Los Angeles Center
11:25PM 33.8828 -116.8689 269° West 349 402 14,000 -1,860 Descending Los Angeles Center
11:26PM 33.8669 -116.9767 260° West 332 382 12,900 -1,380 Descending Los Angeles Center
11:27PM 33.8519 -117.0769 260° West 325 374 11,200 -1,680 Descending Los Angeles Center
11:28PM 33.8333 -117.1667 256° West 270 311 9,600 -1,560 Descending Southern California TRACON
11:29PM 33.8333 -117.2667 270° West 277 319 8,100 -840 Descending Southern California TRACON
11:30PM 33.8167 -117.3500 256° West 248 285 8,000 -60 Descending Southern California TRACON
11:31PM 33.8000 -117.4167 253° West 233 268 8,000  Level Southern California TRACON
11:32PM 33.7922 -117.5014 264° West 213 245 8,000 -360 Level Los Angeles Center
11:33PM 33.7844 -117.5689 262° West 206 237 7,200 -780 Descending Los Angeles Center
11:34PM 33.7833 -117.6333 269° West 198 228 6,600 -960 Descending Southern California TRACON
11:35PM 33.7833 -117.6833 270° West 192 221 5,600 -1,200 Descending Southern California TRACON
11:36PM 33.8000 -117.7500 287° West 178 205 4,300 -1,500 Descending Southern California TRACON
11:37PM 33.8000 -117.7833 270° West 165 190 2,700 -1,200 Descending Southern California TRACON
11:38PM 33.7667 -117.8167 220° Southwest 149 171 1,900 -840 Descending Southern California TRACON
11:39PM 33.7333 -117.8333 203° Southwest 141 162 1,100 -780 Descending Southern California TRACON
11:40PM 33.7000 -117.8500 203° Southwest 136 157 400 -720 Descending Southern California TRACON
11:43PM 33.6757 -117.8682 132° Southeast  Level Estimated